createdAt,value
2022-11-23T00:02:39.205Z,1005
2022-11-23T00:12:39.152Z,1005
2022-11-23T00:22:39.053Z,1005
2022-11-23T00:32:39.121Z,1005
2022-11-23T00:42:39.091Z,1005
2022-11-23T00:52:39.135Z,1005
2022-11-23T01:02:39.091Z,1005
2022-11-23T01:12:39.203Z,1005
2022-11-23T01:22:39.089Z,1005
2022-11-23T01:32:39.145Z,1005
2022-11-23T01:42:39.094Z,1005
2022-11-23T01:52:39.141Z,1005
2022-11-23T02:02:39.095Z,1005
2022-11-23T02:12:39.141Z,1005
2022-11-23T02:22:39.115Z,1005
2022-11-23T02:32:39.159Z,1005
2022-11-23T02:42:39.154Z,1005
2022-11-23T02:52:39.157Z,1005
2022-11-23T03:02:39.127Z,1005
2022-11-23T03:12:39.159Z,1005
2022-11-23T03:22:39.158Z,1005
2022-11-23T03:32:39.193Z,1005
2022-11-23T03:42:39.175Z,1005
2022-11-23T03:52:39.185Z,1005
2022-11-23T04:02:39.170Z,1005
2022-11-23T04:12:39.203Z,1005
2022-11-23T04:22:39.182Z,1005
2022-11-23T04:32:39.194Z,1006
2022-11-23T04:42:39.190Z,1006
2022-11-23T04:52:39.211Z,1006
2022-11-23T05:02:39.210Z,1006
2022-11-23T05:12:39.228Z,1006
2022-11-23T05:22:39.181Z,1006
2022-11-23T05:32:39.206Z,1006
2022-11-23T05:42:39.196Z,1006
2022-11-23T05:52:39.230Z,1006
2022-11-23T06:02:41.139Z,1006
2022-11-23T06:12:39.250Z,1006
2022-11-23T06:22:39.255Z,1006
2022-11-23T06:32:39.278Z,1006
2022-11-23T06:42:40.140Z,1006
2022-11-23T06:52:39.266Z,1006
2022-11-23T07:02:39.262Z,1006
2022-11-23T07:12:39.331Z,1006
2022-11-23T07:22:39.251Z,1006
2022-11-23T07:32:39.278Z,1008
2022-11-23T07:42:44.367Z,1008
2022-11-23T07:52:39.307Z,1008
2022-11-23T08:02:48.382Z,1006
2022-11-23T08:12:39.311Z,1008
2022-11-23T08:22:39.267Z,1008
2022-11-23T08:32:39.326Z,1008
2022-11-23T08:42:39.293Z,1008
2022-11-23T08:52:39.324Z,1008
2022-11-23T09:02:39.288Z,1008
2022-11-23T09:12:39.339Z,1008
2022-11-23T09:22:39.312Z,1008
2022-11-23T09:32:39.332Z,1008
2022-11-23T09:42:39.291Z,1008
2022-11-23T09:52:39.344Z,1008
2022-11-23T10:02:39.324Z,1008
2022-11-23T10:12:40.121Z,1008
2022-11-23T10:22:39.305Z,1008
2022-11-23T10:32:39.364Z,1008
2022-11-23T10:42:39.321Z,1008
2022-11-23T10:52:39.339Z,1008
2022-11-23T11:02:39.320Z,1008
2022-11-23T11:12:39.325Z,1008
2022-11-23T11:22:42.107Z,1008
2022-11-23T11:32:39.378Z,1008
2022-11-23T11:42:39.358Z,1008
2022-11-23T11:52:39.366Z,1008
2022-11-23T12:02:39.351Z,1008
2022-11-23T12:12:39.372Z,1008
2022-11-23T12:22:39.332Z,1008
2022-11-23T12:32:39.362Z,1008
2022-11-23T12:42:39.336Z,1008
2022-11-23T12:52:39.360Z,1008
2022-11-23T13:02:39.406Z,1008
2022-11-23T13:12:39.392Z,1008
2022-11-23T13:22:39.341Z,1008
2022-11-23T13:32:39.432Z,1008
2022-11-23T13:42:39.346Z,1008
2022-11-23T13:52:39.383Z,1008
2022-11-23T14:02:39.437Z,1008
2022-11-23T14:12:39.391Z,1008
2022-11-23T14:22:39.381Z,1008
2022-11-23T14:32:39.395Z,1008
2022-11-23T14:42:39.342Z,1008
2022-11-23T14:52:39.402Z,1008
2022-11-23T15:02:39.400Z,1008
2022-11-23T15:12:39.407Z,1008
2022-11-23T15:22:39.379Z,1008
2022-11-23T15:32:39.470Z,1008
2022-11-23T15:42:39.376Z,1008
2022-11-23T15:52:39.387Z,1008
2022-11-23T16:02:39.467Z,1009
2022-11-23T16:12:39.459Z,1009
2022-11-23T16:22:39.393Z,1009
2022-11-23T16:32:39.440Z,1009
2022-11-23T16:42:39.374Z,1009
2022-11-23T16:52:39.401Z,1009
2022-11-23T17:02:39.463Z,1009
2022-11-23T17:12:39.422Z,1009
2022-11-23T17:22:39.400Z,1010
2022-11-23T17:32:39.535Z,1010
2022-11-23T17:42:39.426Z,1010
2022-11-23T17:52:39.460Z,1010
2022-11-23T18:02:39.404Z,1010
2022-11-23T18:12:39.437Z,1010
2022-11-23T18:22:39.399Z,1010
2022-11-23T18:32:39.444Z,1010
2022-11-23T18:42:39.422Z,1010
2022-11-23T18:52:39.434Z,1010
2022-11-23T19:02:39.443Z,1010
2022-11-23T19:12:39.437Z,1010
2022-11-23T19:22:39.414Z,1010
2022-11-23T19:32:39.443Z,1010
2022-11-23T19:42:39.445Z,1011
2022-11-23T19:53:04.034Z,1011
2022-11-23T20:02:39.455Z,1011
2022-11-23T20:12:39.467Z,1011
2022-11-23T20:22:39.480Z,1011
2022-11-23T20:32:39.512Z,1011
2022-11-23T20:42:39.444Z,1011
2022-11-23T20:52:39.476Z,1011
2022-11-23T21:02:39.522Z,1012
2022-11-23T21:12:39.493Z,1012
2022-11-23T21:22:39.508Z,1012
2022-11-23T21:32:39.481Z,1012
2022-11-23T21:42:39.485Z,1012
2022-11-23T21:52:39.508Z,1012
2022-11-23T22:02:39.533Z,1012
2022-11-23T22:12:39.544Z,1012
2022-11-23T22:22:39.537Z,1012
2022-11-23T22:32:39.574Z,1012
2022-11-23T22:42:39.554Z,1013
2022-11-23T22:52:39.547Z,1013
2022-11-23T23:02:39.663Z,1013
2022-11-23T23:12:39.554Z,1013
2022-11-23T23:22:39.541Z,1013
2022-11-23T23:32:39.580Z,1013
2022-11-23T23:42:46.699Z,1013
2022-11-23T23:52:39.556Z,1013
